createdAt,value
2022-12-15T00:00:15.732Z,58.83
2022-12-15T00:03:00.830Z,50.83
2022-12-15T00:05:49.929Z,61.25
2022-12-15T00:08:35.797Z,58.97
2022-12-15T00:11:21.809Z,46.30
2022-12-15T00:14:07.257Z,43.53
2022-12-15T00:16:52.613Z,41.35
2022-12-15T00:19:38.136Z,48.65
2022-12-15T00:22:24.853Z,50.83
2022-12-15T00:25:10.030Z,56.55
2022-12-15T00:28:01.567Z,54.00
2022-12-15T00:30:49.850Z,49.10
2022-12-15T00:33:35.990Z,45.15
2022-12-15T00:36:21.458Z,48.70
2022-12-15T00:38:48.240Z,44.55
2022-12-15T00:41:17.816Z,50.85
2022-12-15T00:43:45.180Z,47.08
2022-12-15T00:46:30.544Z,44.83
2022-12-15T00:48:57.635Z,42.58
2022-12-15T00:51:43.619Z,37.88
2022-12-15T00:54:29.319Z,42.25
2022-12-15T00:57:14.569Z,39.15
2022-12-15T00:59:59.717Z,49.55
2022-12-15T01:02:44.989Z,36.03
2022-12-15T01:05:30.266Z,44.80
2022-12-15T01:08:18.023Z,46.97
2022-12-15T01:11:03.196Z,44.70
2022-12-15T01:13:49.706Z,36.92
2022-12-15T01:16:35.291Z,46.30
2022-12-15T01:19:20.615Z,47.80
2022-12-15T01:21:47.203Z,41.30
2022-12-15T01:24:13.802Z,41.45
2022-12-15T01:26:40.382Z,41.90
2022-12-15T01:29:06.968Z,44.03
2022-12-15T01:31:33.556Z,42.20
2022-12-15T01:34:00.126Z,48.35
2022-12-15T01:36:26.697Z,38.03
2022-12-15T01:38:54.517Z,49.95
2022-12-15T01:41:21.629Z,39.85
2022-12-15T01:43:49.936Z,44.67
2022-12-15T01:46:19.984Z,42.75
2022-12-15T01:48:52.227Z,44.03
2022-12-15T01:51:25.433Z,43.58
2022-12-15T01:54:05.087Z,44.13
2022-12-15T01:56:38.260Z,45.78
2022-12-15T01:59:09.325Z,43.88
2022-12-15T02:01:36.035Z,40.63
2022-12-15T02:04:03.243Z,41.10
2022-12-15T02:06:29.939Z,44.53
2022-12-15T02:08:59.012Z,44.65
2022-12-15T02:11:40.863Z,46.95
2022-12-15T02:14:10.306Z,43.40
2022-12-15T02:22:06.734Z,33.58
2022-12-15T02:25:08.918Z,40.33
2022-12-15T02:27:47.821Z,42.15
2022-12-15T02:30:20.298Z,40.72
2022-12-15T02:33:23.840Z,43.13
2022-12-15T02:36:00.429Z,37.72
2022-12-15T02:38:31.397Z,43.90
2022-12-15T02:40:59.838Z,43.40
2022-12-15T02:43:29.289Z,42.72
2022-12-15T02:46:20.593Z,37.60
2022-12-15T02:48:59.180Z,44.08
2022-12-15T02:51:45.976Z,41.15
2022-12-15T02:54:30.467Z,42.58
2022-12-15T02:57:31.852Z,49.22
2022-12-15T03:00:02.431Z,66.95
2022-12-15T03:02:32.408Z,47.85
2022-12-15T03:04:59.183Z,46.75
2022-12-15T03:07:27.919Z,44.03
2022-12-15T03:09:57.531Z,44.03
2022-12-15T03:12:24.375Z,50.13
2022-12-15T03:14:51.040Z,49.47
2022-12-15T03:17:17.645Z,45.25
2022-12-15T03:19:44.216Z,37.83
2022-12-15T03:22:10.849Z,40.83
2022-12-15T03:24:37.419Z,43.28
2022-12-15T03:27:04.883Z,38.15
2022-12-15T03:29:31.430Z,42.72
2022-12-15T03:31:58.097Z,43.22
2022-12-15T03:34:24.708Z,39.58
2022-12-15T03:36:51.331Z,38.63
2022-12-15T03:39:17.888Z,40.13
2022-12-15T03:41:44.498Z,40.30
2022-12-15T03:44:11.246Z,40.75
2022-12-15T03:46:37.783Z,41.50
2022-12-15T03:49:04.511Z,36.05
2022-12-15T03:51:31.315Z,41.53
2022-12-15T03:53:58.914Z,40.10
2022-12-15T03:56:25.815Z,43.38
2022-12-15T03:58:52.354Z,44.70
2022-12-15T04:01:31.013Z,36.63
2022-12-15T04:04:00.912Z,44.00
2022-12-15T04:06:29.276Z,44.92
2022-12-15T04:08:55.932Z,44.30
2022-12-15T04:11:22.591Z,44.92
2022-12-15T04:13:49.142Z,43.72
2022-12-15T04:16:19.746Z,46.53
2022-12-15T04:18:46.571Z,39.38
2022-12-15T04:21:13.154Z,53.70
2022-12-15T04:23:39.645Z,44.15
2022-12-15T04:26:24.820Z,35.17
2022-12-15T04:29:10.078Z,40.47
2022-12-15T04:31:55.319Z,39.28
2022-12-15T04:34:42.534Z,37.00
2022-12-15T04:37:32.674Z,44.92
2022-12-15T04:40:18.545Z,47.42
2022-12-15T04:43:05.996Z,42.05
2022-12-15T04:45:51.668Z,54.65
2022-12-15T04:48:36.926Z,47.42
2022-12-15T04:51:23.873Z,44.28
2022-12-15T04:54:09.371Z,41.78
2022-12-15T04:56:54.162Z,51.30
2022-12-15T04:59:39.257Z,50.63
2022-12-15T05:02:24.314Z,50.42
2022-12-15T05:05:09.482Z,44.95
2022-12-15T05:07:55.389Z,44.45
2022-12-15T05:10:40.550Z,42.63
2022-12-15T05:13:27.002Z,43.13
2022-12-15T05:16:12.416Z,44.50
2022-12-15T05:18:58.091Z,46.53
2022-12-15T05:21:43.109Z,43.67
2022-12-15T05:24:27.953Z,42.60
2022-12-15T05:27:12.812Z,45.35
2022-12-15T05:29:57.752Z,40.45
2022-12-15T05:32:24.242Z,44.72
2022-12-15T05:35:15.783Z,40.63
2022-12-15T05:37:42.301Z,42.22
2022-12-15T05:40:09.511Z,42.28
2022-12-15T05:42:36.032Z,37.50
2022-12-15T05:45:02.779Z,44.13
2022-12-15T05:47:29.292Z,48.10
2022-12-15T05:49:55.821Z,43.05
2022-12-15T05:52:22.515Z,43.95
2022-12-15T05:54:49.079Z,40.03
2022-12-15T05:57:15.574Z,43.80
2022-12-15T05:59:42.490Z,45.50
2022-12-15T06:02:09.098Z,44.70
2022-12-15T06:04:35.988Z,44.22
2022-12-15T06:07:02.640Z,37.58
2022-12-15T06:09:29.163Z,48.72
2022-12-15T06:12:20.417Z,41.83
2022-12-15T06:14:46.935Z,53.20
2022-12-15T06:19:42.944Z,48.15
2022-12-15T06:22:09.462Z,45.72
2022-12-15T06:24:36.079Z,52.25
2022-12-15T06:27:02.635Z,42.67
2022-12-15T06:29:29.201Z,48.20
2022-12-15T06:31:55.794Z,44.88
2022-12-15T06:34:22.665Z,49.20
2022-12-15T06:36:49.223Z,47.60
2022-12-15T06:39:16.627Z,50.40
2022-12-15T06:41:43.501Z,52.10
2022-12-15T06:44:13.991Z,48.30
2022-12-15T06:46:40.604Z,51.05
2022-12-15T06:49:07.832Z,43.95
2022-12-15T06:51:34.630Z,44.33
2022-12-15T06:54:01.717Z,49.03
2022-12-15T06:56:38.850Z,44.97
2022-12-15T06:59:07.426Z,48.17
2022-12-15T07:01:34.733Z,50.33
2022-12-15T07:04:02.907Z,45.30
2022-12-15T07:06:36.456Z,45.35
2022-12-15T07:09:04.904Z,40.35
2022-12-15T07:11:31.797Z,44.92
2022-12-15T07:13:58.404Z,42.45
2022-12-15T07:16:25.321Z,47.00
2022-12-15T07:18:52.257Z,43.78
2022-12-15T07:21:19.523Z,45.45
2022-12-15T07:23:54.879Z,44.90
2022-12-15T07:26:22.829Z,42.63
2022-12-15T07:28:49.382Z,50.83
2022-12-15T07:31:16.018Z,47.78
2022-12-15T07:33:42.994Z,55.28
2022-12-15T07:36:09.713Z,50.45
2022-12-15T07:38:36.615Z,43.67
2022-12-15T07:41:05.708Z,48.35
2022-12-15T07:43:32.841Z,47.35
2022-12-15T07:46:00.050Z,50.38
2022-12-15T07:48:27.351Z,50.13
2022-12-15T07:51:01.413Z,50.30
2022-12-15T07:53:34.294Z,46.88
2022-12-15T07:56:10.165Z,48.88
2022-12-15T07:58:38.300Z,49.15
2022-12-15T08:01:12.250Z,47.88
2022-12-15T08:03:40.241Z,60.42
2022-12-15T08:06:12.409Z,54.92
2022-12-15T08:08:40.439Z,57.58
2022-12-15T08:11:13.389Z,59.00
2022-12-15T08:16:29.156Z,57.38
2022-12-15T08:18:57.166Z,53.50
2022-12-15T08:21:27.736Z,51.80
2022-12-15T08:23:54.256Z,54.80
2022-12-15T08:26:25.226Z,56.38
2022-12-15T08:28:54.854Z,52.33
2022-12-15T08:31:23.834Z,49.28
2022-12-15T08:33:50.985Z,40.40
2022-12-15T08:36:19.337Z,47.22
2022-12-15T08:38:47.401Z,57.67
2022-12-15T08:41:23.595Z,53.13
2022-12-15T08:43:51.453Z,53.08
2022-12-15T08:46:21.035Z,48.85
2022-12-15T08:48:48.205Z,52.58
2022-12-15T08:51:15.438Z,48.30
2022-12-15T08:53:42.938Z,55.55
2022-12-15T08:56:15.790Z,45.63
2022-12-15T08:58:42.494Z,52.85
2022-12-15T09:01:17.312Z,55.35
2022-12-15T09:03:47.348Z,60.05
2022-12-15T09:06:17.167Z,59.40
2022-12-15T09:08:44.109Z,50.60
2022-12-15T09:11:16.017Z,45.63
2022-12-15T09:13:42.684Z,53.75
2022-12-15T09:16:16.042Z,54.35
2022-12-15T09:18:45.765Z,59.40
2022-12-15T09:23:39.249Z,63.92
2022-12-15T09:26:14.322Z,47.78
2022-12-15T09:28:42.950Z,52.40
2022-12-15T09:31:14.719Z,52.40
2022-12-15T09:33:44.004Z,56.30
2022-12-15T09:36:13.127Z,57.00
2022-12-15T09:38:41.779Z,47.85
2022-12-15T09:41:14.948Z,50.28
2022-12-15T09:43:54.530Z,48.42
2022-12-15T09:46:30.702Z,51.13
2022-12-15T09:49:01.348Z,53.05
2022-12-15T09:51:43.082Z,49.40
2022-12-15T09:54:11.234Z,48.40
2022-12-15T09:56:44.449Z,52.40
2022-12-15T09:59:51.804Z,42.25
2022-12-15T10:02:35.810Z,44.20
2022-12-15T10:05:16.225Z,43.60
2022-12-15T10:10:34.849Z,44.05
2022-12-15T10:13:09.619Z,45.28
2022-12-15T10:15:50.460Z,46.70
2022-12-15T10:18:35.262Z,37.47
2022-12-15T10:21:02.334Z,41.13
2022-12-15T10:23:29.560Z,36.05
2022-12-15T10:26:17.956Z,37.42
2022-12-15T10:29:06.445Z,34.60
2022-12-15T10:31:52.320Z,40.97
2022-12-15T10:34:32.301Z,44.30
2022-12-15T10:36:59.200Z,37.55
2022-12-15T10:39:38.411Z,41.10
2022-12-15T10:42:24.865Z,44.83
2022-12-15T10:44:56.965Z,45.95
2022-12-15T10:47:26.211Z,41.63
2022-12-15T10:49:54.489Z,43.15
2022-12-15T10:52:27.393Z,39.70
2022-12-15T10:54:59.761Z,38.25
2022-12-15T10:57:31.392Z,44.85
2022-12-15T11:00:13.382Z,40.28
2022-12-15T11:02:42.223Z,40.90
2022-12-15T11:05:15.806Z,40.55
2022-12-15T11:07:42.405Z,38.28
2022-12-15T11:10:48.996Z,39.85
2022-12-15T11:13:19.843Z,47.65
2022-12-15T11:15:50.763Z,41.08
2022-12-15T11:18:42.214Z,38.33
2022-12-15T11:21:19.363Z,39.78
2022-12-15T11:24:07.040Z,38.42
2022-12-15T11:26:42.515Z,36.13
2022-12-15T11:29:50.233Z,36.00
2022-12-15T11:32:23.371Z,40.45
2022-12-15T11:34:50.054Z,34.22
2022-12-15T11:37:36.216Z,42.25
2022-12-15T11:40:27.901Z,36.28
2022-12-15T11:43:19.380Z,34.17
2022-12-15T11:46:01.030Z,34.25
2022-12-15T11:49:04.444Z,32.53
2022-12-15T11:51:43.584Z,37.25
2022-12-15T11:54:10.175Z,35.95
2022-12-15T11:56:45.447Z,36.10
2022-12-15T11:59:34.741Z,32.35
2022-12-15T12:02:26.316Z,31.80
2022-12-15T12:05:03.102Z,33.70
2022-12-15T12:07:44.837Z,33.45
2022-12-15T12:10:30.401Z,34.83
2022-12-15T12:13:26.757Z,37.15
2022-12-15T12:16:24.694Z,35.58
2022-12-15T12:19:06.101Z,35.67
2022-12-15T12:21:44.102Z,32.00
2022-12-15T12:24:26.341Z,36.30
2022-12-15T12:27:02.440Z,30.17
2022-12-15T12:29:38.355Z,36.75
2022-12-15T12:32:18.178Z,36.08
2022-12-15T12:35:32.811Z,35.38
2022-12-15T12:38:03.925Z,36.90
2022-12-15T12:41:02.893Z,36.70
2022-12-15T12:43:40.695Z,34.83
2022-12-15T12:46:34.006Z,31.67
2022-12-15T12:49:26.072Z,33.00
2022-12-15T12:51:56.486Z,36.22
2022-12-15T12:54:35.256Z,34.20
2022-12-15T12:57:22.657Z,35.33
2022-12-15T13:00:01.950Z,29.75
2022-12-15T13:02:29.395Z,36.00
2022-12-15T13:05:06.449Z,34.40
2022-12-15T13:07:36.313Z,33.75
2022-12-15T13:10:17.626Z,34.20
2022-12-15T13:12:55.659Z,36.15
2022-12-15T13:15:31.094Z,34.20
2022-12-15T13:18:12.413Z,31.17
2022-12-15T13:20:40.465Z,35.47
2022-12-15T13:23:22.026Z,31.27
2022-12-15T13:26:00.549Z,37.95
2022-12-15T13:28:36.259Z,34.80
2022-12-15T13:31:18.505Z,41.47
2022-12-15T13:33:51.537Z,29.27
2022-12-15T13:36:36.654Z,33.50
2022-12-15T13:39:15.196Z,33.20
2022-12-15T13:42:07.520Z,31.92
2022-12-15T13:44:40.528Z,33.08
2022-12-15T13:47:20.080Z,32.95
2022-12-15T13:55:39.872Z,31.33
2022-12-15T13:58:09.269Z,30.98
2022-12-15T14:00:39.448Z,34.08
2022-12-15T14:03:10.310Z,29.58
2022-12-15T14:05:39.012Z,37.78
2022-12-15T14:08:34.878Z,31.80
2022-12-15T14:14:09.425Z,35.55
2022-12-15T14:17:22.282Z,40.47
2022-12-15T14:20:12.085Z,33.28
2022-12-15T14:22:42.514Z,35.70
2022-12-15T14:25:16.592Z,47.92
2022-12-15T14:27:43.141Z,41.60
2022-12-15T14:34:36.012Z,42.40
2022-12-15T14:37:29.632Z,37.88
2022-12-15T14:42:37.940Z,39.28
2022-12-15T14:45:32.447Z,42.13
2022-12-15T14:48:40.664Z,41.83
2022-12-15T14:51:14.977Z,38.38
2022-12-15T14:53:49.577Z,48.92
2022-12-15T14:56:25.769Z,49.78
2022-12-15T14:59:30.788Z,49.60
2022-12-15T15:02:23.003Z,39.97
2022-12-15T15:05:05.468Z,46.08
2022-12-15T15:07:40.018Z,40.83
2022-12-15T15:11:00.636Z,48.25
2022-12-15T15:13:44.181Z,36.47
2022-12-15T15:16:18.477Z,33.58
2022-12-15T15:18:55.838Z,36.15
2022-12-15T15:21:26.119Z,36.92
2022-12-15T15:24:01.727Z,38.90
2022-12-15T15:26:31.711Z,40.03
2022-12-15T15:28:59.243Z,39.83
2022-12-15T15:31:41.862Z,41.28
2022-12-15T15:34:16.444Z,39.05
2022-12-15T15:36:48.751Z,47.42
2022-12-15T15:39:22.324Z,42.67
2022-12-15T15:41:54.664Z,44.83
2022-12-15T15:47:02.150Z,40.95
2022-12-15T15:49:58.851Z,41.20
2022-12-15T15:52:36.808Z,39.38
2022-12-15T15:55:12.903Z,41.97
2022-12-15T15:57:41.917Z,43.55
2022-12-15T16:00:24.893Z,44.13
2022-12-15T16:02:59.179Z,36.60
2022-12-15T16:05:34.253Z,36.75
2022-12-15T16:08:21.427Z,43.55
2022-12-15T16:14:03.492Z,55.17
2022-12-15T16:17:05.842Z,75.28
2022-12-15T16:19:39.441Z,67.43
2022-12-15T16:22:14.024Z,73.18
2022-12-15T16:24:47.393Z,65.18
2022-12-15T16:27:18.676Z,63.22
2022-12-15T16:30:10.109Z,60.08
2022-12-15T16:36:03.599Z,61.40
2022-12-15T16:38:39.237Z,63.58
2022-12-15T16:41:14.306Z,59.47
2022-12-15T16:43:48.201Z,68.40
2022-12-15T16:46:23.318Z,63.65
2022-12-15T16:48:51.730Z,59.58
2022-12-15T16:52:06.823Z,56.33
2022-12-15T16:54:33.504Z,56.88
2022-12-15T16:57:00.290Z,65.57
2022-12-15T16:59:36.812Z,58.90
2022-12-15T17:02:28.396Z,65.25
2022-12-15T17:04:58.282Z,65.95
2022-12-15T17:07:27.528Z,69.72
2022-12-15T17:09:54.214Z,74.10
2022-12-15T17:12:20.779Z,61.97
2022-12-15T17:14:47.557Z,73.65
2022-12-15T17:17:15.814Z,88.32
2022-12-15T17:19:57.804Z,73.63
2022-12-15T17:22:30.327Z,73.97
2022-12-15T17:24:58.428Z,82.47
2022-12-15T17:27:34.651Z,87.50
2022-12-15T17:30:04.371Z,92.80
2022-12-15T17:32:35.184Z,91.90
2022-12-15T17:35:07.581Z,89.32
2022-12-15T17:37:43.253Z,83.60
2022-12-15T17:40:26.796Z,82.47
2022-12-15T17:43:13.617Z,91.18
2022-12-15T17:45:50.935Z,93.43
2022-12-15T17:48:21.655Z,93.28
2022-12-15T17:50:52.898Z,113.97
2022-12-15T17:53:30.372Z,102.55
2022-12-15T17:56:00.080Z,103.72
2022-12-15T17:58:27.133Z,103.88
2022-12-15T18:00:56.649Z,106.30
2022-12-15T18:03:24.262Z,119.63
2022-12-15T18:06:03.468Z,142.57
2022-12-15T18:08:34.651Z,132.77
2022-12-15T18:11:01.332Z,115.55
2022-12-15T18:13:35.800Z,124.20
2022-12-15T18:16:09.847Z,121.55
2022-12-15T18:18:39.789Z,121.13
2022-12-15T18:21:19.927Z,110.55
2022-12-15T18:23:56.425Z,103.95
2022-12-15T18:26:25.200Z,112.00
2022-12-15T18:28:52.255Z,113.53
2022-12-15T18:31:27.949Z,107.72
2022-12-15T18:34:00.926Z,98.20
2022-12-15T18:36:31.450Z,106.38
2022-12-15T18:39:09.472Z,108.90
2022-12-15T18:42:15.638Z,107.95
2022-12-15T18:44:49.907Z,123.35
2022-12-15T18:47:19.583Z,124.78
2022-12-15T18:49:49.965Z,116.72
2022-12-15T18:52:31.479Z,102.40
2022-12-15T18:55:27.072Z,99.15
2022-12-15T18:58:04.248Z,90.32
2022-12-15T19:00:38.927Z,81.82
2022-12-15T19:03:09.214Z,88.97
2022-12-15T19:05:41.635Z,85.25
2022-12-15T19:08:18.549Z,84.35
2022-12-15T19:10:56.264Z,85.60
2022-12-15T19:13:30.271Z,83.15
2022-12-15T19:15:58.719Z,69.13
2022-12-15T19:18:45.308Z,66.43
2022-12-15T19:21:39.929Z,53.08
2022-12-15T19:24:09.617Z,59.17
2022-12-15T19:26:36.232Z,61.95
2022-12-15T19:29:21.199Z,66.97
2022-12-15T19:31:48.418Z,65.15
2022-12-15T19:34:15.312Z,90.05
2022-12-15T19:36:42.099Z,86.95
2022-12-15T19:39:19.169Z,90.88
2022-12-15T19:41:45.798Z,92.40
2022-12-15T19:44:15.848Z,77.03
2022-12-15T19:46:43.479Z,77.75
2022-12-15T19:49:10.517Z,74.47
2022-12-15T19:51:37.592Z,83.32
2022-12-15T19:54:04.449Z,80.05
2022-12-15T19:56:31.086Z,79.85
2022-12-15T19:58:57.958Z,81.70
2022-12-15T20:01:30.639Z,78.50
2022-12-15T20:03:57.250Z,79.88
2022-12-15T20:06:26.791Z,77.95
2022-12-15T20:11:45.943Z,70.93
2022-12-15T20:14:14.963Z,83.10
2022-12-15T20:16:41.633Z,82.85
2022-12-15T20:19:08.236Z,76.38
2022-12-15T20:21:37.545Z,74.93
2022-12-15T20:24:20.042Z,75.13
2022-12-15T20:26:47.022Z,77.55
2022-12-15T20:29:24.542Z,74.20
2022-12-15T20:31:55.868Z,75.60
2022-12-15T20:34:23.741Z,79.38
2022-12-15T20:37:26.779Z,76.32
2022-12-15T20:39:57.385Z,84.50
2022-12-15T20:42:24.739Z,76.40
2022-12-15T20:44:51.624Z,81.35
2022-12-15T20:49:54.772Z,84.18
2022-12-15T20:52:26.868Z,78.50
2022-12-15T20:54:54.614Z,83.97
2022-12-15T20:57:21.659Z,79.47
2022-12-15T20:59:48.631Z,86.10
2022-12-15T21:02:19.045Z,80.57
2022-12-15T21:04:46.407Z,81.45
2022-12-15T21:07:13.039Z,78.15
2022-12-15T21:09:40.018Z,82.78
2022-12-15T21:12:32.757Z,73.47
2022-12-15T21:14:59.305Z,68.28
2022-12-15T21:17:26.352Z,78.05
2022-12-15T21:19:52.890Z,67.32
2022-12-15T21:22:27.102Z,66.20
2022-12-15T21:24:56.214Z,69.65
2022-12-15T21:27:23.027Z,71.95
2022-12-15T21:29:52.595Z,69.18
2022-12-15T21:32:20.800Z,71.03
2022-12-15T21:34:47.334Z,55.28
2022-12-15T21:37:27.060Z,54.80
2022-12-15T21:39:54.214Z,58.42
2022-12-15T21:42:21.127Z,55.42
2022-12-15T21:44:47.901Z,60.63
2022-12-15T21:47:26.110Z,59.90
2022-12-15T21:49:52.675Z,58.50
2022-12-15T21:52:20.152Z,62.95
2022-12-15T21:54:46.678Z,56.60
2022-12-15T21:57:13.289Z,59.45
2022-12-15T21:59:40.099Z,54.58
2022-12-15T22:02:36.284Z,60.50
2022-12-15T22:05:03.076Z,58.50
2022-12-15T22:07:29.606Z,65.97
2022-12-15T22:09:56.172Z,60.05
2022-12-15T22:12:24.318Z,52.55
2022-12-15T22:14:51.968Z,55.78
2022-12-15T22:17:21.537Z,49.30
2022-12-15T22:22:15.517Z,51.97
2022-12-15T22:24:42.749Z,55.40
2022-12-15T22:27:20.939Z,66.80
2022-12-15T22:29:49.009Z,63.60
2022-12-15T22:32:16.847Z,59.47
2022-12-15T22:34:43.465Z,56.85
2022-12-15T22:37:10.326Z,61.70
2022-12-15T22:39:37.414Z,59.17
2022-12-15T22:42:05.091Z,61.60
2022-12-15T22:44:35.803Z,49.42
2022-12-15T22:47:04.008Z,54.45
2022-12-15T22:49:35.325Z,58.08
2022-12-15T22:52:02.115Z,63.65
2022-12-15T22:54:29.397Z,52.45
2022-12-15T22:57:01.016Z,49.42
2022-12-15T22:59:35.505Z,50.95
2022-12-15T23:02:03.082Z,50.92
2022-12-15T23:04:31.756Z,48.92
2022-12-15T23:07:00.006Z,47.58
2022-12-15T23:09:26.680Z,44.17
2022-12-15T23:11:53.408Z,45.72
2022-12-15T23:14:44.756Z,46.88
2022-12-15T23:17:12.756Z,44.85
2022-12-15T23:19:45.965Z,48.33
2022-12-15T23:22:13.703Z,43.88
2022-12-15T23:24:40.704Z,56.35
2022-12-15T23:27:11.541Z,53.60
2022-12-15T23:29:38.192Z,63.10
2022-12-15T23:32:04.951Z,56.42
2022-12-15T23:34:34.667Z,62.28
2022-12-15T23:37:01.204Z,58.20
2022-12-15T23:39:27.753Z,57.08
2022-12-15T23:41:54.235Z,51.47
2022-12-15T23:44:21.287Z,53.85
2022-12-15T23:46:47.861Z,56.92
2022-12-15T23:49:14.529Z,58.90
2022-12-15T23:51:41.013Z,59.28
2022-12-15T23:54:07.689Z,60.88
2022-12-15T23:56:34.752Z,60.70
2022-12-15T23:59:01.338Z,62.80
